Home > Products > Valid Products > TAF

000
FTUS41 KAKQ 252000 AAA
TAFECG
TAF AMD
KECG 252010Z 2520/2618 28004KT P6SM FEW009 BKN060
      TEMPO 2520/2522 3SM -RA BR OVC009
     FM252200 03010KT 4SM -RA BR BKN007 OVC015
     FM260400 02015G24KT 2SM RA BR BKN005 OVC010=



000
FTUS41 KAKQ 252000 AAA
TAFPHF
TAF AMD
KPHF 252009Z 2520/2618 06006KT P6SM OVC021
     FM252300 04006KT 5SM -RA BR BKN010 OVC025
     FM260500 03016G26KT 2SM RA BR BKN005 OVC010=



000
FTUS41 KAKQ 252000 AAA
TAFORF
TAF AMD
KORF 252008Z 2520/2618 01009KT P6SM SCT015 OVC070
      TEMPO 2520/2522 3SM -RA BR OVC015
     FM260500 02016G26KT 2SM RA BR BKN005 OVC010=



000
FTUS41 KAKQ 251700
TAFSBY
TAF
KSBY 251720Z 2518/2618 34010KT P6SM VCSH BKN020 OVC035
     FM252300 02006KT P6SM -RA BKN020 OVC035
     FM260800 01015G22KT 2SM RA BR BKN009 OVC020=



000
FTUS41 KAKQ 251700
TAFECG
TAF
KECG 251720Z 2518/2618 VRB06KT P6SM -RA BKN015 BKN035 OVC080
     FM252200 03010KT 4SM -RA BR BKN007 OVC015
     FM260400 02015G24KT 2SM RA BR BKN005 OVC010=



000
FTUS41 KAKQ 251700
TAFPHF
TAF
KPHF 251720Z 2518/2618 30005KT P6SM -RA SCT010 OVC035
     FM252300 04006KT 5SM -RA BR BKN010 OVC025
     FM260500 03016G26KT 2SM RA BR BKN005 OVC010=



000
FTUS41 KAKQ 251700
TAFORF
TAF
KORF 251720Z 2518/2618 22010KT P6SM -RA BKN008 OVC015
     FM260500 02016G26KT 2SM RA BR BKN005 OVC010=



000
FTUS41 KAKQ 251700
TAFRIC
TAF
KRIC 251720Z 2518/2618 02006KT P6SM SCT020 BKN045 OVC120
     FM260000 05005KT P6SM -RA BKN020 OVC035
     FM260600 02012KT 2SM RA BR BKN008 OVC020=



000
FTUS41 KAKQ 251500 AAA
TAFECG
TAF AMD
KECG 251534Z 2516/2612 VRB06KT P6SM -RA BKN015 BKN050 OVC080
      TEMPO 2516/2519 4SM RA BR
     FM252200 03010KT 4SM -RA BR OVC012
     FM260400 01012G20KT 3SM RA BR OVC008=



000
FTUS41 KAKQ 251500 AAA
TAFPHF
TAF AMD
KPHF 251532Z 2516/2612 25005KT P6SM -RA SCT015 BKN035 OVC050
     FM252200 02010KT 5SM -RA BR SCT012 OVC025
     FM260000 09005KT 4SM -RA BR OVC012
     FM260500 03010KT 3SM RA BR OVC008=



000
FTUS41 KAKQ 251300 AAA
TAFORF
TAF AMD
KORF 251302Z 2513/2612 22010KT P6SM -RA SCT025 BKN050 OVC120
     FM251700 36010KT 5SM -RA BR SCT020 OVC040
     FM252100 04006KT 4SM -RA BR SCT008 OVC025
     FM260400 03012G18KT 3SM RA BR OVC008=



000
FTUS41 KAKQ 251200 AAA
TAFRIC
TAF AMD
KRIC 251259Z 2513/2612 21006KT P6SM BKN045 OVC150
      TEMPO 2513/2514 3SM BR BKN035
     FM251500 36006KT P6SM BKN050 OVC100
     FM260000 05004KT P6SM -RA OVC035
     FM260600 02010KT 2SM -RA BR OVC020=



000
FTUS41 KAKQ 251100
TAFSBY
TAF
KSBY 251120Z 2512/2612 23008KT P6SM VCSH SCT050 OVC100
     FM251500 34005KT P6SM BKN050 OVC100
     FM252200 02004KT P6SM -RA OVC040
     FM260600 01010KT 3SM -RA BR OVC020=



000
FTUS41 KAKQ 251100
TAFECG
TAF
KECG 251120Z 2512/2612 21009KT P6SM -RA SCT050 OVC100
     FM251800 35008KT 5SM -RA BR SCT012 OVC040
     FM252200 03010KT 4SM -RA BR OVC012
     FM260400 01012G20KT 3SM RA BR OVC008=



000
FTUS41 KAKQ 251100
TAFORF
TAF
KORF 251120Z 2512/2612 24008KT P6SM VCSH SCT050 BKN080 OVC110
     FM251700 36010KT 5SM -RA BR SCT020 OVC040
     FM252100 04006KT 4SM -RA BR SCT008 OVC025
     FM260400 03012G18KT 3SM RA BR OVC008=



000
FTUS41 KAKQ 251100
TAFRIC
TAF
KRIC 251120Z 2512/2612 21006KT P6SM BKN050 OVC150
     FM251500 36006KT P6SM BKN050 OVC100
     FM260000 05004KT P6SM -RA OVC035
     FM260600 02010KT 2SM -RA BR OVC020=



000
FTUS41 KAKQ 251100
TAFPHF
TAF
KPHF 251120Z 2512/2612 22007KT P6SM SCT050 OVC110
     FM251600 32007KT P6SM -RA SCT015 OVC050
     FM252200 02010KT 5SM -RA BR SCT012 OVC025
     FM260000 09005KT 4SM -RA BR OVC012
     FM260500 03010KT 3SM RA BR OVC008=



000
FTUS41 KAKQ 250600 AAA
TAFRIC
TAF AMD
KRIC 250606Z 2506/2606 20008KT P6SM BKN015 BKN150
     FM251200 01005KT P6SM SCT015 BKN040 BKN120
     FM251800 05006KT P6SM SCT020 BKN035 OVC080
     FM260000 06004KT P6SM -RA OVC035=



000
FTUS41 KAKQ 250500
TAFPHF
TAF
KPHF 250520Z 2506/2606 22010KT P6SM VCSH SCT050 BKN120
     FM251100 26005KT P6SM -RA SCT007 OVC015
     FM251300 01007KT 5SM -RA BR OVC015
     FM251800 04010KT 6SM -RA BR SCT008 OVC025
     FM260000 09005KT 4SM -RA BR OVC008=



000
FTUS41 KAKQ 250500
TAFECG
TAF
KECG 250520Z 2506/2606 20010KT P6SM VCSH SCT040 OVC100
     FM251100 24007KT 5SM -RA BR SCT007 OVC012
     FM251400 04006KT 4SM -RA BR OVC012
     FM260000 04010KT 2SM -RA BR OVC005=



000
FTUS41 KAKQ 250500
TAFRIC
TAF
KRIC 250520Z 2506/2606 22008KT P6SM BKN150
     FM251200 01005KT P6SM SCT015 BKN040 BKN120
     FM251800 05006KT P6SM SCT020 BKN035 OVC080
     FM260000 06004KT P6SM -RA OVC035=



000
FTUS41 KAKQ 250500
TAFSBY
TAF
KSBY 250520Z 2506/2606 21010KT P6SM VCSH SCT050 OVC120
     FM251300 01005KT P6SM SCT015 OVC035
     FM251800 02006KT 5SM -RA BR OVC020=



000
FTUS41 KAKQ 250500
TAFORF
TAF
KORF 250520Z 2506/2606 21011KT P6SM VCSH SCT050 BKN120
     FM251100 01007KT P6SM -RA FEW005 OVC012
     FM251800 04010KT 5SM -RA BR SCT008 OVC025
     FM260000 08006KT 4SM -RA BR OVC008=



000
FTUS41 KAKQ 250100 AAA
TAFSBY
TAF AMD
KSBY 250117Z 2501/2524 22010KT P6SM BKN100
      TEMPO 2502/2505 4SM SHRA BKN030
     FM250500 25005KT 5SM -DZ BR BKN007
     FM251300 01005KT 6SM BR SCT007 OVC012
     FM251700 02006KT 5SM -RA BR OVC020=



000
FTUS41 KAKQ 242300
TAFORF
TAF
KORF 242334Z 2500/2524 20017KT P6SM FEW020 BKN070
      TEMPO 2501/2504 5SM -RA SCT012 OVC030
     FM250400 23010KT P6SM SCT007 OVC060
     FM251100 01007KT P6SM -RA FEW005 OVC012
     FM251800 04010KT 5SM -RA BR SCT008 OVC025=



000
FTUS41 KAKQ 242300
TAFSBY
TAF
KSBY 242334Z 2500/2524 20013KT P6SM SCT110
     FM250500 25005KT 5SM -DZ BR BKN007
     FM251300 01005KT 6SM BR SCT007 OVC012
     FM251700 02006KT 5SM -RA BR OVC020=



000
FTUS41 KAKQ 242300
TAFRIC
TAF
KRIC 242334Z 2500/2524 20014KT P6SM FEW040 SCT100
     FM250200 21009KT P6SM SCT015 SCT100
     FM251200 01005KT P6SM SCT015 BKN040 BKN120
     FM251800 05006KT P6SM SCT020 BKN035 OVC080=



000
FTUS41 KAKQ 242300
TAFECG
TAF
KECG 242334Z 2500/2524 19010KT P6SM VCTS SCT040CB OVC070
      TEMPO 2500/2503 3SM SHRA BR OVC020
     FM250300 23008KT 6SM -RA BR SCT007 OVC025
     FM250700 24007KT 3SM -RA BR OVC007
     FM251400 04006KT 4SM -RA BR OVC012=



000
FTUS41 KAKQ 242300
TAFPHF
TAF
KPHF 242334Z 2500/2524 20014KT P6SM FEW020 BKN070
     FM250400 23008KT P6SM SCT007 BKN060
     FM251100 26005KT P6SM -RA SCT007 OVC015
     FM251300 01007KT 5SM -RA BR OVC015
     FM251800 04010KT 6SM -RA BR SCT008 OVC025=



000
FTUS41 KAKQ 241900 AAA
TAFECG
TAF AMD
KECG 241900Z 2419/2518 21014G24KT P6SM SCT025 OVC050
     FM242000 19014G24KT P6SM VCSH BKN025 OVC050
      TEMPO 2420/2422 4SM -RA BKN015
     FM242200 20010KT P6SM VCSH BKN025 OVC050
     FM250500 21008KT 5SM BR SCT007 OVC050=



000
FTUS41 KAKQ 241700
TAFORF
TAF
KORF 241740Z 2418/2518 22020G30KT P6SM SCT025 BKN035
     FM242300 21013KT P6SM SCT030 BKN080
     FM250400 21010KT P6SM SCT007 BKN080
     FM251000 25005KT P6SM SCT007 BKN080=



000
FTUS41 KAKQ 241700
TAFECG
TAF
KECG 241740Z 2418/2518 21015G25KT P6SM SCT022 BKN030
     FM242100 20010KT P6SM BKN025 OVC050
     FM250500 21008KT 5SM BR SCT007 OVC050=



000
FTUS41 KAKQ 241700
TAFSBY
TAF
KSBY 241740Z 2418/2518 21020G30KT P6SM SCT030
     FM242300 20010KT P6SM SCT030
     FM250500 21005KT 5SM BR BKN007
     FM251200 33005KT P6SM SCT015 BKN120=



000
FTUS41 KAKQ 241700
TAFRIC
TAF
KRIC 241740Z 2418/2518 21020G30KT P6SM SCT030
     FM242200 21012KT P6SM SCT030
     FM250200 20006KT P6SM SCT015 BKN250
     FM251200 35005KT P6SM SCT015 BKN120=



000
FTUS41 KAKQ 241700
TAFPHF
TAF
KPHF 241740Z 2418/2518 22015G25KT P6SM SCT025 BKN035
     FM242200 21011KT P6SM SCT030 BKN080
     FM250400 21008KT P6SM SCT007 BKN080
     FM250900 26005KT P6SM SCT007 BKN080=



000
FTUS41 KAKQ 241600 AAA
TAFRIC
TAF AMD
KRIC 241608Z 2416/2512 21020G30KT P6SM SCT020 BKN035
     FM242300 22010KT P6SM BKN030=



000
FTUS41 KAKQ 241500 AAB
TAFSBY
TAF AMD
KSBY 241534Z 2416/2512 21020G30KT P6SM BKN020 BKN035
     FM242300 21011KT P6SM BKN030=



000
FTUS41 KAKQ 241500 AAB
TAFORF
TAF AMD
KORF 241532Z 2416/2512 22020G30KT P6SM SCT020 BKN035
     FM242200 21013KT P6SM BKN030=



000
FTUS41 KAKQ 241400 AAA
TAFSBY
TAF AMD
KSBY 241459Z 2415/2512 20015G25KT P6SM BKN020 BKN035
     FM242300 21011KT P6SM BKN030=



000
FTUS41 KAKQ 241300 AAA
TAFECG
TAF AMD
KECG 241325Z 2413/2512 20012G22KT P6SM SCT008 BKN070
     FM241500 21012G18KT P6SM SCT020 BKN035
     FM242200 20010KT P6SM BKN030=



000
FTUS41 KAKQ 241300 AAA
TAFPHF
TAF AMD
KPHF 241323Z 2413/2512 21015G25KT P6SM SCT015 BKN035
     FM241500 22015G25KT P6SM SCT020 BKN035
     FM242200 21013KT P6SM BKN030=



000
FTUS41 KAKQ 241300 AAA
TAFORF
TAF AMD
KORF 241322Z 2413/2512 21015G25KT P6SM SCT015
     FM241500 22016G26KT P6SM SCT020 BKN035
     FM242200 21013KT P6SM BKN030=



000
FTUS41 KAKQ 241100
TAFSBY
TAF
KSBY 241135Z 2412/2512 20017G27KT P6SM BKN012
      TEMPO 2412/2415 BKN008
     FM241600 20015G23KT P6SM BKN020 BKN035
     FM242300 21011KT P6SM BKN030=



000
FTUS41 KAKQ 241100
TAFECG
TAF
KECG 241135Z 2412/2512 20012G18KT P6SM BKN012
     FM241500 21012G18KT P6SM SCT020 BKN035
     FM242200 20010KT P6SM BKN030=



000
FTUS41 KAKQ 241100
TAFPHF
TAF
KPHF 241135Z 2412/2512 21012G19KT P6SM BKN015
     FM241500 22016G25KT P6SM SCT020 BKN035
     FM242200 21013KT P6SM BKN030=



000
FTUS41 KAKQ 241100
TAFRIC
TAF
KRIC 241135Z 2412/2512 20013KT P6SM BKN025
     FM241400 21014G21KT P6SM SCT020 BKN035
     FM242300 22010KT P6SM BKN030=



000
FTUS41 KAKQ 241100
TAFORF
TAF
KORF 241135Z 2412/2512 21014G23KT P6SM BKN012
     FM241500 22016G25KT P6SM SCT020 BKN035
     FM242200 21013KT P6SM BKN030=



000
FTUS41 KAKQ 240500
TAFORF
TAF
KORF 240538Z 2406/2506 18016G25KT 4SM -RA BR BKN015
     FM240800 20016G25KT P6SM BKN007
     FM241500 21016G25KT P6SM SCT012 BKN035=



000
FTUS41 KAKQ 240500
TAFSBY
TAF
KSBY 240538Z 2406/2506 15013G20KT 4SM -RA BR BKN015
     FM240900 18015G23KT P6SM BKN007
     FM241500 19014G21KT P6SM BKN035=



000
FTUS41 KAKQ 240500
TAFECG
TAF
KECG 240538Z 2406/2506 16012G19KT 4SM -RA BR BKN015
     FM240800 18012G19KT P6SM BKN007
     FM241500 21015G23KT P6SM SCT012 BKN035=



000
FTUS41 KAKQ 240500
TAFRIC
TAF
KRIC 240538Z 2406/2506 17015G23KT 5SM -RA BR BKN007
     FM240700 19014G22KT 3SM BR BKN007
     FM241400 21014G21KT P6SM BKN035=



000
FTUS41 KAKQ 240500
TAFPHF
TAF
KPHF 240538Z 2406/2506 17013G21KT 4SM -RA BR BKN015
     FM240800 20016G25KT P6SM BKN007
     FM241500 21016G25KT P6SM SCT012 BKN035=



000
FTUS41 KAKQ 240200 AAA
TAFSBY
TAF AMD
KSBY 240232Z 2403/2424 12006KT P6SM SCT025 OVC070
     FM240330 13008KT 4SM -RA BR SCT008 BKN030
     FM240600 16011KT 2SM -RA BR BKN008
     FM241100 19013G20KT P6SM SCT008 BKN012
     FM241800 19014G21KT P6SM BKN035=



000
FTUS41 KAKQ 240200 AAA
TAFORF
TAF AMD
KORF 240231Z 2403/2424 15011KT P6SM FEW015 BKN045
      TEMPO 2403/2404 3SM -RA BR SCT008 OVC020
     FM240500 18016G25KT 3SM -RA BR SCT002 OVC007
     FM240800 20013G20KT P6SM SCT006 BKN011
     FM241700 22013G20KT P6SM SCT012 BKN035=



000
FTUS41 KAKQ 240200 AAA
TAFPHF
TAF AMD
KPHF 240229Z 2402/2424 14011KT P6SM BKN040
      TEMPO 2402/2404 3SM -RA BR SCT008 OVC015
     FM240400 16012G20KT 2SM -RA BR BKN008
     FM240900 19015G25KT P6SM SCT008 BKN012
     FM241600 19014G22KT P6SM BKN035=



000
FTUS41 KAKQ 240200 AAA
TAFECG
TAF AMD
KECG 240228Z 2402/2424 15012KT P6SM BKN024 OVC035
      TEMPO 2402/2404 4SM -RA BR OVC012
     FM240400 18016G25KT 2SM -RA SCT002 OVC007
     FM240800 20015G25KT P6SM SCT006 BKN015
     FM241600 22013G20KT P6SM SCT012 BKN035=



000
FTUS41 KAKQ 240200 AAA
TAFRIC
TAF AMD
KRIC 240226Z 2402/2424 12011KT P6SM FEW005 BKN027 OVC045
      TEMPO 2402/2404 4SM -RA BKN010
     FM240400 13008KT 2SM -RA BR BKN008 OVC030
     FM240900 19012KT P6SM -DZ SCT008 BKN012
     FM241600 19014G21KT P6SM BKN035=



000
FTUS41 KAKQ 232300
TAFECG
TAF
KECG 232321Z 2400/2424 11006KT P6SM -RA FEW020 BKN060 OVC100
      TEMPO 2400/2402 3SM -RA BR OVC020
     FM240200 15014G22KT 4SM -RA SCT005 OVC025
     FM240400 18016G25KT 2SM -RA SCT002 OVC007
     FM240800 20015G25KT P6SM SCT006 BKN015
     FM241600 22013G20KT P6SM SCT012 BKN035=



000
FTUS41 KAKQ 232300
TAFPHF
TAF
KPHF 232321Z 2400/2424 08005KT P6SM -RA SCT027 BKN040
      TEMPO 2400/2402 4SM -RA BR BKN015 OVC025
     FM240200 14009KT 4SM -RA BR SCT008 BKN025
     FM240400 16012G20KT 2SM -RA BR BKN008
     FM240900 19015G25KT P6SM SCT008 BKN012
     FM241600 19014G22KT P6SM BKN035=



000
FTUS41 KAKQ 232300
TAFRIC
TAF
KRIC 232321Z 2400/2424 08003KT P6SM -RA SCT025 BKN050 OVC100
      TEMPO 2400/2402 5SM -RA OVC025
     FM240200 12006KT 4SM -RA BR SCT008 BKN020 OVC060
     FM240400 13008KT 2SM -RA BR BKN008 OVC030
     FM240900 19012KT P6SM -DZ SCT008 BKN012
     FM241600 19014G21KT P6SM BKN035=



000
FTUS41 KAKQ 232300
TAFSBY
TAF
KSBY 232321Z 2400/2424 12006KT P6SM SCT100 BKN250
     FM240200 14005KT P6SM -RA SCT024 BKN080
     FM240400 13008KT 4SM -RA BR SCT008 BKN030
     FM240600 16011KT 2SM -RA BR BKN008
     FM241100 19013G20KT P6SM SCT008 BKN012
     FM241800 19014G21KT P6SM BKN035=



000
FTUS41 KAKQ 232300
TAFORF
TAF
KORF 232321Z 2400/2424 13007KT P6SM -RA FEW030 BKN080
      TEMPO 2400/2402 3SM -RA BR OVC012
     FM240200 13010G15KT 5SM -RA BR SCT012 OVC025
     FM240500 18016G25KT 2SM -RA BR SCT002 OVC007
     FM240800 20013G20KT P6SM SCT006 BKN011
     FM241700 22013G20KT P6SM SCT012 BKN035=



000
FTUS41 KAKQ 232100 AAA
TAFECG
TAF AMD
KECG 232106Z 2321/2418 12008KT P6SM -RA BKN090 OVC150
     FM232300 13009G15KT P6SM -RA SCT012 OVC035
     FM240100 15014G22KT 4SM -RA SCT005 OVC012
     FM240300 18016G25KT 2SM -RA SCT002 OVC007
     FM240700 20015G25KT P6SM SCT006 BKN011
     FM241400 22013G20KT P6SM SCT012 BKN025=



000
FTUS41 KAKQ 231700
TAFPHF
TAF
KPHF 231737Z 2318/2418 18005KT P6SM BKN150
     FM232300 13005KT P6SM -RA SCT024 BKN080
     FM240200 14009KT 4SM -RA BR SCT008 BKN025
     FM240400 16012G20KT 2SM -RA BR BKN008
     FM240900 19015G25KT P6SM SCT008 BKN012
     FM241500 19014G22KT P6SM BKN025=



000
FTUS41 KAKQ 231700
TAFSBY
TAF
KSBY 231737Z 2318/2418 19006KT P6SM BKN250
     FM240200 14005KT P6SM -RA SCT024 BKN080
     FM240400 13008KT 4SM -RA BR SCT008 BKN025
     FM240600 16011KT 2SM -RA BR BKN008
     FM241100 19013G20KT P6SM SCT008 BKN012
     FM241700 19014G21KT P6SM BKN025=



000
FTUS41 KAKQ 231700
TAFORF
TAF
KORF 231737Z 2318/2418 16007KT P6SM BKN150
     FM232200 15011KT P6SM BKN050
     FM240100 13009G15KT P6SM -RA SCT012 OVC025
     FM240300 15014G22KT 4SM -RA SCT005 OVC012
     FM240500 18016G25KT 2SM -RA SCT002 OVC007
     FM240800 20013G20KT P6SM SCT006 BKN011
     FM241500 22013G20KT P6SM SCT012 BKN025=



000
FTUS41 KAKQ 231700
TAFRIC
TAF
KRIC 231737Z 2318/2418 19005KT P6SM BKN150
     FM232300 14005KT P6SM -RA SCT024 BKN080
     FM240200 12006KT 4SM -RA BR SCT008 BKN025
     FM240400 13008KT 2SM -RA BR BKN008
     FM240900 19010KT P6SM SCT008 BKN012
     FM241500 19014G21KT P6SM BKN025=



000
FTUS41 KAKQ 231700
TAFECG
TAF
KECG 231737Z 2318/2418 15008KT P6SM SCT050 BKN150
     FM232200 13009G15KT P6SM -RA SCT012 OVC025
     FM240100 15014G22KT 4SM -RA SCT005 OVC012
     FM240300 18016G25KT 2SM -RA SCT002 OVC007
     FM240700 20015G25KT P6SM SCT006 BKN011
     FM241400 22013G20KT P6SM SCT012 BKN025=



000
FTUS41 KAKQ 231100
TAFORF
TAF
KORF 231135Z 2312/2412 21006KT P6SM FEW040 SCT250
     FM231400 19009KT P6SM SCT030 BKN120
     FM232200 16016G24KT 3SM -RA BKN007=



000
FTUS41 KAKQ 231100
TAFRIC
TAF
KRIC 231135Z 2312/2412 20006KT P6SM SCT250
     FM231400 20007KT P6SM SCT030 BKN120
     FM232200 16012KT 3SM -RA BKN007=



000
FTUS41 KAKQ 231100
TAFSBY
TAF
KSBY 231135Z 2312/2412 21007KT P6SM SCT250
     FM231500 19009KT P6SM SCT030 BKN120
     FM240000 16014G22KT 3SM -RA BKN007=



000
FTUS41 KAKQ 231100
TAFPHF
TAF
KPHF 231135Z 2312/2412 20004KT P6SM FEW040 SCT250
     FM231400 19009KT P6SM SCT030 BKN120
     FM232200 16015G23KT 3SM -RA BKN007=



000
FTUS41 KAKQ 231100
TAFECG
TAF
KECG 231135Z 2312/2412 00000KT P6SM SCT040 SCT250
     FM231300 15008KT P6SM SCT030 BKN120
     FM232000 14012G20KT 3SM -RA BKN007=



000
FTUS41 KAKQ 230500
TAFPHF
TAF
KPHF 230539Z 2306/2406 22004KT P6SM BKN250
     FM231100 21005KT P6SM SCT040 BKN150
     FM231600 20008KT P6SM BKN040 OVC100
     FM232200 16010KT P6SM -RA OVC040=



000
FTUS41 KAKQ 230500
TAFECG
TAF
KECG 230539Z 2306/2406 22003KT P6SM BKN250
     FM230800 21003KT P6SM FEW030 BKN120
     FM231300 17010KT P6SM BKN040 OVC100
     FM232000 14011KT 4SM RA BR OVC030=



000
FTUS41 KAKQ 230500
TAFRIC
TAF
KRIC 230539Z 2306/2406 21005KT P6SM BKN250
     FM231400 20007KT P6SM SCT040 BKN120
     FM232100 17009KT P6SM -RA SCT030 OVC060=



000
FTUS41 KAKQ 230500
TAFSBY
TAF
KSBY 230539Z 2306/2406 21006KT P6SM BKN250
     FM231300 21008KT P6SM FEW040 OVC250
     FM232000 17009KT P6SM SCT040 BKN080=



000
FTUS41 KAKQ 230500
TAFORF
TAF
KORF 230539Z 2306/2406 22007KT P6SM BKN250
     FM231100 21007KT P6SM SCT040 BKN150
     FM231600 20009KT P6SM BKN040 OVC100
     FM232200 17011KT P6SM -RA OVC035=



    US Dept of Commerce
    National Oceanic and Atmospheric Administration
    National Weather Service
    1325 East West Highway
    Silver Spring, MD 20910
    Page Author: NWS Internet Services Team
Disclaimer
Information Quality
Credits
Glossary
Privacy Policy
Freedom of Information Act (FOIA)
About Us
Career Opportunities